^^
Station Historical Data
Daily Summary for September 14, 2018 Units:  Both    English   Metric
« Previous Day
Next Day »
Daily Weekly Monthly Yearly Custom
  High: Low: Average:
Temperature: TemperatureF °F /  -17.8 °C 47.1 °F /  8.4 °C 64.3 °F /  17.9 °C
Dew Point: DewpointF °F /  -17.8 °C 15.1 °F /  -9.4 °C 22.5 °F /  -5.3 °C
Humidity: Humidity % 10 % 22 %
Wind Speed: WindSpeedMPH mph /  0 km/h - 10 mph /  16.1 km/h
Wind Gust: WindSpeedGustMPH mph /  0 km/h - -
Wind:- - SE
Pressure: PressureIn in /  0 hPa 0.00 in /  0 hPa -
Precipitation: 0 in /  0 mm    
Historical Graphs
 
 
Tabular Data for September 14, 2018
Time Temperature Dew Point Pressure Wind Wind Speed Wind Gust Humidity Rainfall Rate (Hourly)
TemperatureF °F /  -17.8 °C DewpointF °F /  -17.8 °C PressureIn in /  0 hPa Calm     Humidity % HourlyPrecipIn in /  0 mm
00:04 58.3 °F /  14.6 °C 20.7 °F /  -6.3 °C 29.80 in /  1009 hPa SW 6 mph /  9.7 km/h 14 mph /  22.5 km/h 23 % 0 in /  0 mm
00:09 59.4 °F /  15.2 °C 19.4 °F /  -7 °C 29.80 in /  1009 hPa WSW 11 mph /  17.7 km/h 14 mph /  22.5 km/h 21 % 0 in /  0 mm
00:14 61 °F /  16.1 °C 19.6 °F /  -6.9 °C 29.80 in /  1009 hPa SSW 11 mph /  17.7 km/h 19 mph /  30.6 km/h 20 % 0 in /  0 mm
00:19 63.9 °F /  17.7 °C 19.6 °F /  -6.9 °C 29.80 in /  1009 hPa WSW 11 mph /  17.7 km/h 25 mph /  40.2 km/h 18 % 0 in /  0 mm
00:24 63.1 °F /  17.3 °C 20.1 °F /  -6.6 °C 29.80 in /  1009 hPa SW 8.9 mph /  14.3 km/h 16 mph /  25.7 km/h 19 % 0 in /  0 mm
00:29 59.4 °F /  15.2 °C 19.4 °F /  -7 °C 29.80 in /  1009 hPa SW 16.1 mph /  25.9 km/h 19 mph /  30.6 km/h 21 % 0 in /  0 mm
00:34 58.8 °F /  14.9 °C 20.1 °F /  -6.6 °C 29.80 in /  1009 hPa SSW 6.9 mph /  11.1 km/h 17 mph /  27.4 km/h 22 % 0 in /  0 mm
00:39 57.7 °F /  14.3 °C 21.2 °F /  -6 °C 29.81 in /  1009.4 hPa SW 13 mph /  20.9 km/h 16 mph /  25.7 km/h 24 % 0 in /  0 mm
00:44 59.4 °F /  15.2 °C 20.5 °F /  -6.4 °C 29.80 in /  1009 hPa SW 16.1 mph /  25.9 km/h 19 mph /  30.6 km/h 22 % 0 in /  0 mm
00:49 61.7 °F /  16.5 °C 19 °F /  -7.2 °C 29.80 in /  1009 hPa SSE 6.9 mph /  11.1 km/h 19 mph /  30.6 km/h 19 % 0 in /  0 mm
00:54 60.1 °F /  15.6 °C 19.9 °F /  -6.7 °C 29.81 in /  1009.4 hPa WSW 8.9 mph /  14.3 km/h 15 mph /  24.1 km/h 21 % 0 in /  0 mm
00:59 58.3 °F /  14.6 °C 20.7 °F /  -6.3 °C 29.81 in /  1009.4 hPa SW 12.1 mph /  19.5 km/h 18 mph /  29 km/h 23 % 0 in /  0 mm
01:04 57.9 °F /  14.4 °C 19.2 °F /  -7.1 °C 29.81 in /  1009.4 hPa SSW 8.1 mph /  13 km/h 12 mph /  19.3 km/h 22 % 0 in /  0 mm
01:09 59.5 °F /  15.3 °C 18.5 °F /  -7.5 °C 29.81 in /  1009.4 hPa South 4.9 mph /  7.9 km/h 13 mph /  20.9 km/h 20 % 0 in /  0 mm
01:14 61.7 °F /  16.5 °C 19 °F /  -7.2 °C 29.82 in /  1009.7 hPa SSE 10.1 mph /  16.3 km/h 14 mph /  22.5 km/h 19 % 0 in /  0 mm
01:19 59.5 °F /  15.3 °C 19.6 °F /  -6.9 °C 29.82 in /  1009.7 hPa SE 14.1 mph /  22.7 km/h 17 mph /  27.4 km/h 21 % 0 in /  0 mm
01:24 59.4 °F /  15.2 °C 19.4 °F /  -7 °C 29.82 in /  1009.7 hPa SW 14.1 mph /  22.7 km/h 14 mph /  22.5 km/h 21 % 0 in /  0 mm
01:29 61 °F /  16.1 °C 19.6 °F /  -6.9 °C 29.82 in /  1009.7 hPa South 10.1 mph /  16.3 km/h 16 mph /  25.7 km/h 20 % 0 in /  0 mm
01:34 60.1 °F /  15.6 °C 19.9 °F /  -6.7 °C 29.82 in /  1009.7 hPa SE 8.9 mph /  14.3 km/h 13 mph /  20.9 km/h 21 % 0 in /  0 mm
01:39 57.6 °F /  14.2 °C 19.9 °F /  -6.7 °C 29.83 in /  1010 hPa WSW 10.1 mph /  16.3 km/h 13 mph /  20.9 km/h 23 % 0 in /  0 mm
01:44 57 °F /  13.9 °C 19.6 °F /  -6.9 °C 29.83 in /  1010 hPa South 10.1 mph /  16.3 km/h 12 mph /  19.3 km/h 23 % 0 in /  0 mm
01:49 56.1 °F /  13.4 °C 19.8 °F /  -6.8 °C 29.83 in /  1010 hPa SSE 10.1 mph /  16.3 km/h 14 mph /  22.5 km/h 24 % 0 in /  0 mm
01:54 56.1 °F /  13.4 °C 19.8 °F /  -6.8 °C 29.83 in /  1010 hPa SSE 15 mph /  24.1 km/h 15 mph /  24.1 km/h 24 % 0 in /  0 mm
01:59 55.9 °F /  13.3 °C 19.6 °F /  -6.9 °C 29.83 in /  1010 hPa SSE 8.9 mph /  14.3 km/h 15 mph /  24.1 km/h 24 % 0 in /  0 mm
02:04 55.9 °F /  13.3 °C 19.6 °F /  -6.9 °C 29.83 in /  1010 hPa SSW 13 mph /  20.9 km/h 17 mph /  27.4 km/h 24 % 0 in /  0 mm
02:09 55.8 °F /  13.2 °C 19.6 °F /  -6.9 °C 29.83 in /  1010 hPa SSE 10.1 mph /  16.3 km/h 14 mph /  22.5 km/h 24 % 0 in /  0 mm
02:14 55.2 °F /  12.9 °C 19 °F /  -7.2 °C 29.84 in /  1010.4 hPa SSW 11 mph /  17.7 km/h 16 mph /  25.7 km/h 24 % 0 in /  0 mm
02:19 55.2 °F /  12.9 °C 19.9 °F /  -6.7 °C 29.84 in /  1010.4 hPa SSW 8.9 mph /  14.3 km/h 15 mph /  24.1 km/h 25 % 0 in /  0 mm
02:24 54.9 °F /  12.7 °C 19.8 °F /  -6.8 °C 29.84 in /  1010.4 hPa South 8.1 mph /  13 km/h 13 mph /  20.9 km/h 25 % 0 in /  0 mm
02:29 54.7 °F /  12.6 °C 19.6 °F /  -6.9 °C 29.85 in /  1010.7 hPa SE 4.9 mph /  7.9 km/h 14 mph /  22.5 km/h 25 % 0 in /  0 mm
02:34 54.5 °F /  12.5 °C 19.4 °F /  -7 °C 29.85 in /  1010.7 hPa SSE 6.9 mph /  11.1 km/h 7 mph /  11.3 km/h 25 % 0 in /  0 mm
02:39 53.4 °F /  11.9 °C 19.4 °F /  -7 °C 29.85 in /  1010.7 hPa South 4.9 mph /  7.9 km/h 10 mph /  16.1 km/h 26 % 0 in /  0 mm
02:44 53.2 °F /  11.8 °C 19.2 °F /  -7.1 °C 29.85 in /  1010.7 hPa South 4.9 mph /  7.9 km/h 9 mph /  14.5 km/h 26 % 0 in /  0 mm
02:49 52.9 °F /  11.6 °C 19.8 °F /  -6.8 °C 29.85 in /  1010.7 hPa South 6.9 mph /  11.1 km/h 8 mph /  12.9 km/h 27 % 0 in /  0 mm
02:54 52.5 °F /  11.4 °C 19.4 °F /  -7 °C 29.85 in /  1010.7 hPa SSE 10.1 mph /  16.3 km/h 12 mph /  19.3 km/h 27 % 0 in /  0 mm
02:59 52.5 °F /  11.4 °C 19.4 °F /  -7 °C 29.84 in /  1010.4 hPa South 13 mph /  20.9 km/h 17 mph /  27.4 km/h 27 % 0 in /  0 mm
03:04 53.1 °F /  11.7 °C 19.9 °F /  -6.7 °C 29.85 in /  1010.7 hPa South 2 mph /  3.2 km/h 8 mph /  12.9 km/h 27 % 0 in /  0 mm
03:09 51.3 °F /  10.7 °C 20.1 °F /  -6.6 °C 29.85 in /  1010.7 hPa SSW 10.1 mph /  16.3 km/h 15 mph /  24.1 km/h 29 % 0 in /  0 mm
03:14 51.4 °F /  10.8 °C 19.4 °F /  -7 °C 29.84 in /  1010.4 hPa South 14.1 mph /  22.7 km/h 15 mph /  24.1 km/h 28 % 0 in /  0 mm
03:19 50.9 °F /  10.5 °C 19.8 °F /  -6.8 °C 29.85 in /  1010.7 hPa SW 13 mph /  20.9 km/h 17 mph /  27.4 km/h 29 % 0 in /  0 mm
03:24 51.3 °F /  10.7 °C 19.2 °F /  -7.1 °C 29.85 in /  1010.7 hPa South 11 mph /  17.7 km/h 12 mph /  19.3 km/h 28 % 0 in /  0 mm
03:29 50.7 °F /  10.4 °C 19.6 °F /  -6.9 °C 29.85 in /  1010.7 hPa South 10.1 mph /  16.3 km/h 14 mph /  22.5 km/h 29 % 0 in /  0 mm
03:34 50.7 °F /  10.4 °C 19.6 °F /  -6.9 °C 29.85 in /  1010.7 hPa SSW 10.1 mph /  16.3 km/h 14 mph /  22.5 km/h 29 % 0 in /  0 mm
03:39 50.5 °F /  10.3 °C 19.4 °F /  -7 °C 29.85 in /  1010.7 hPa SSW 8.1 mph /  13 km/h 11 mph /  17.7 km/h 29 % 0 in /  0 mm
03:44 50.2 °F /  10.1 °C 19.9 °F /  -6.7 °C 29.85 in /  1010.7 hPa South 14.1 mph /  22.7 km/h 14 mph /  22.5 km/h 30 % 0 in /  0 mm
03:49 50 °F /  10 °C 19 °F /  -7.2 °C 29.85 in /  1010.7 hPa SE 12.1 mph /  19.5 km/h 15 mph /  24.1 km/h 29 % 0 in /  0 mm
03:54 49.8 °F /  9.9 °C 18.9 °F /  -7.3 °C 29.85 in /  1010.7 hPa SW 11 mph /  17.7 km/h 15 mph /  24.1 km/h 29 % 0 in /  0 mm
03:59 50.2 °F /  10.1 °C 19.2 °F /  -7.1 °C 29.85 in /  1010.7 hPa South 11 mph /  17.7 km/h 13 mph /  20.9 km/h 29 % 0 in /  0 mm
04:04 50.2 °F /  10.1 °C 19.2 °F /  -7.1 °C 29.85 in /  1010.7 hPa SW 14.1 mph /  22.7 km/h 14 mph /  22.5 km/h 29 % 0 in /  0 mm
04:09 50 °F /  10 °C 19 °F /  -7.2 °C 29.85 in /  1010.7 hPa SSW 10.1 mph /  16.3 km/h 13 mph /  20.9 km/h 29 % 0 in /  0 mm
04:14 49.5 °F /  9.7 °C 18.5 °F /  -7.5 °C 29.85 in /  1010.7 hPa SSW 8.1 mph /  13 km/h 12 mph /  19.3 km/h 29 % 0 in /  0 mm
04:19 50.2 °F /  10.1 °C 18.3 °F /  -7.6 °C 29.86 in /  1011.1 hPa South 2 mph /  3.2 km/h 8 mph /  12.9 km/h 28 % 0 in /  0 mm
04:24 49.8 °F /  9.9 °C 18 °F /  -7.8 °C 29.86 in /  1011.1 hPa SW 8.1 mph /  13 km/h 10 mph /  16.1 km/h 28 % 0 in /  0 mm
04:29 50.2 °F /  10.1 °C 18.3 °F /  -7.6 °C 29.86 in /  1011.1 hPa SSW 8.1 mph /  13 km/h 10 mph /  16.1 km/h 28 % 0 in /  0 mm
04:34 49.5 °F /  9.7 °C 18.5 °F /  -7.5 °C 29.85 in /  1010.7 hPa SSW 6 mph /  9.7 km/h 10 mph /  16.1 km/h 29 % 0 in /  0 mm
04:39 48.7 °F /  9.3 °C 19.4 °F /  -7 °C 29.86 in /  1011.1 hPa WSW 6.9 mph /  11.1 km/h 9 mph /  14.5 km/h 31 % 0 in /  0 mm
04:44 48 °F /  8.9 °C 18.9 °F /  -7.3 °C 29.86 in /  1011.1 hPa WSW 11 mph /  17.7 km/h 12 mph /  19.3 km/h 31 % 0 in /  0 mm
04:49 48.2 °F /  9 °C 18.1 °F /  -7.7 °C 29.86 in /  1011.1 hPa SW 6.9 mph /  11.1 km/h 9 mph /  14.5 km/h 30 % 0 in /  0 mm
04:54 48.4 °F /  9.1 °C 18.3 °F /  -7.6 °C 29.86 in /  1011.1 hPa SW 11 mph /  17.7 km/h 12 mph /  19.3 km/h 30 % 0 in /  0 mm
04:59 48.4 °F /  9.1 °C 18.3 °F /  -7.6 °C 29.86 in /  1011.1 hPa SW 4 mph /  6.4 km/h 8 mph /  12.9 km/h 30 % 0 in /  0 mm
05:04 48.4 °F /  9.1 °C 18.3 °F /  -7.6 °C 29.86 in /  1011.1 hPa SSW 4.9 mph /  7.9 km/h 10 mph /  16.1 km/h 30 % 0 in /  0 mm
05:09 48.4 °F /  9.1 °C 18.3 °F /  -7.6 °C 29.86 in /  1011.1 hPa SSW 8.9 mph /  14.3 km/h 14 mph /  22.5 km/h 30 % 0 in /  0 mm
05:14 47.8 °F /  8.8 °C 18 °F /  -7.8 °C 29.86 in /  1011.1 hPa SSE 12.1 mph /  19.5 km/h 12 mph /  19.3 km/h 30 % 0 in /  0 mm
05:19 47.7 °F /  8.7 °C 18.5 °F /  -7.5 °C 29.87 in /  1011.4 hPa SSW 10.1 mph /  16.3 km/h 14 mph /  22.5 km/h 31 % 0 in /  0 mm
05:24 47.8 °F /  8.8 °C 18 °F /  -7.8 °C 29.87 in /  1011.4 hPa SSW 8.1 mph /  13 km/h 13 mph /  20.9 km/h 30 % 0 in /  0 mm
05:29 48.7 °F /  9.3 °C 18 °F /  -7.8 °C 29.87 in /  1011.4 hPa SSE 6 mph /  9.7 km/h 10 mph /  16.1 km/h 29 % 0 in /  0 mm
05:34 48.7 °F /  9.3 °C 18 °F /  -7.8 °C 29.87 in /  1011.4 hPa SE 10.1 mph /  16.3 km/h 15 mph /  24.1 km/h 29 % 0 in /  0 mm
05:39 48.6 °F /  9.2 °C 17.8 °F /  -7.9 °C 29.88 in /  1011.7 hPa South 4 mph /  6.4 km/h 9 mph /  14.5 km/h 29 % 0 in /  0 mm
05:44 48 °F /  8.9 °C 18.1 °F /  -7.7 °C 29.88 in /  1011.7 hPa SSW 8.1 mph /  13 km/h 11 mph /  17.7 km/h 30 % 0 in /  0 mm
05:49 47.8 °F /  8.8 °C 18 °F /  -7.8 °C 29.88 in /  1011.7 hPa SSW 11 mph /  17.7 km/h 14 mph /  22.5 km/h 30 % 0 in /  0 mm
05:54 47.1 °F /  8.4 °C 18 °F /  -7.8 °C 29.88 in /  1011.7 hPa SSW 14.1 mph /  22.7 km/h 14 mph /  22.5 km/h 31 % 0 in /  0 mm
05:59 47.7 °F /  8.7 °C 17.8 °F /  -7.9 °C 29.88 in /  1011.7 hPa South 10.1 mph /  16.3 km/h 16 mph /  25.7 km/h 30 % 0 in /  0 mm
06:04 48.4 °F /  9.1 °C 17.6 °F /  -8 °C 29.88 in /  1011.7 hPa SSW 11 mph /  17.7 km/h 15 mph /  24.1 km/h 29 % 0 in /  0 mm
06:09 48.2 °F /  9 °C 17.4 °F /  -8.1 °C 29.88 in /  1011.7 hPa West 11 mph /  17.7 km/h 15 mph /  24.1 km/h 29 % 0 in /  0 mm
06:14 47.7 °F /  8.7 °C 17.8 °F /  -7.9 °C 29.89 in /  1012.1 hPa SSW 6.9 mph /  11.1 km/h 17 mph /  27.4 km/h 30 % 0 in /  0 mm
06:19 48 °F /  8.9 °C 17.2 °F /  -8.2 °C 29.89 in /  1012.1 hPa SW 11 mph /  17.7 km/h 13 mph /  20.9 km/h 29 % 0 in /  0 mm
06:24 48.6 °F /  9.2 °C 16.9 °F /  -8.4 °C 29.89 in /  1012.1 hPa SSW 11 mph /  17.7 km/h 17 mph /  27.4 km/h 28 % 0 in /  0 mm
06:29 48.9 °F /  9.4 °C 17.2 °F /  -8.2 °C 29.89 in /  1012.1 hPa SW 10.1 mph /  16.3 km/h 11 mph /  17.7 km/h 28 % 0 in /  0 mm
06:34 48.9 °F /  9.4 °C 17.2 °F /  -8.2 °C 29.90 in /  1012.4 hPa SSE 4.9 mph /  7.9 km/h 12 mph /  19.3 km/h 28 % 0 in /  0 mm
06:39 48.9 °F /  9.4 °C 16.3 °F /  -8.7 °C 29.90 in /  1012.4 hPa SSE 8.1 mph /  13 km/h 14 mph /  22.5 km/h 27 % 0 in /  0 mm
06:44 48.4 °F /  9.1 °C 16.7 °F /  -8.5 °C 29.90 in /  1012.4 hPa SSW 10.1 mph /  16.3 km/h 14 mph /  22.5 km/h 28 % 0 in /  0 mm
06:49 48.2 °F /  9 °C 16.5 °F /  -8.6 °C 29.90 in /  1012.4 hPa South 8.9 mph /  14.3 km/h 11 mph /  17.7 km/h 28 % 0 in /  0 mm
06:54 48.6 °F /  9.2 °C 16.9 °F /  -8.4 °C 29.90 in /  1012.4 hPa SW 12.1 mph /  19.5 km/h 12 mph /  19.3 km/h 28 % 0 in /  0 mm
06:59 48.9 °F /  9.4 °C 17.2 °F /  -8.2 °C 29.91 in /  1012.8 hPa SSE 8.9 mph /  14.3 km/h 14 mph /  22.5 km/h 28 % 0 in /  0 mm
07:04 49.1 °F /  9.5 °C 17.4 °F /  -8.1 °C 29.91 in /  1012.8 hPa South 10.1 mph /  16.3 km/h 16 mph /  25.7 km/h 28 % 0 in /  0 mm
07:09 49.3 °F /  9.6 °C 17.6 °F /  -8 °C 29.91 in /  1012.8 hPa SSW 8.9 mph /  14.3 km/h 14 mph /  22.5 km/h 28 % 0 in /  0 mm
07:14 49.6 °F /  9.8 °C 17.1 °F /  -8.3 °C 29.91 in /  1012.8 hPa ESE 11 mph /  17.7 km/h 14 mph /  22.5 km/h 27 % 0 in /  0 mm
07:19 49.5 °F /  9.7 °C 17.8 °F /  -7.9 °C 29.91 in /  1012.8 hPa SW 10.1 mph /  16.3 km/h 13 mph /  20.9 km/h 28 % 0 in /  0 mm
07:24 49.3 °F /  9.6 °C 17.6 °F /  -8 °C 29.91 in /  1012.8 hPa SW 11 mph /  17.7 km/h 14 mph /  22.5 km/h 28 % 0 in /  0 mm
07:29 49.3 °F /  9.6 °C 17.6 °F /  -8 °C 29.91 in /  1012.8 hPa SE 8.1 mph /  13 km/h 14 mph /  22.5 km/h 28 % 0 in /  0 mm
07:34 49.3 °F /  9.6 °C 17.6 °F /  -8 °C 29.91 in /  1012.8 hPa SSW 8.9 mph /  14.3 km/h 12 mph /  19.3 km/h 28 % 0 in /  0 mm
07:39 49.6 °F /  9.8 °C 17.8 °F /  -7.9 °C 29.91 in /  1012.8 hPa South 8.9 mph /  14.3 km/h 12 mph /  19.3 km/h 28 % 0 in /  0 mm
07:44 51.1 °F /  10.6 °C 18.3 °F /  -7.6 °C 29.91 in /  1012.8 hPa South 11 mph /  17.7 km/h 11 mph /  17.7 km/h 27 % 0 in /  0 mm
07:49 52.9 °F /  11.6 °C 18 °F /  -7.8 °C 29.91 in /  1012.8 hPa SSW 11 mph /  17.7 km/h 13 mph /  20.9 km/h 25 % 0 in /  0 mm
07:54 53.4 °F /  11.9 °C 18.5 °F /  -7.5 °C 29.91 in /  1012.8 hPa South 4.9 mph /  7.9 km/h 10 mph /  16.1 km/h 25 % 0 in /  0 mm
07:59 53.1 °F /  11.7 °C 18.1 °F /  -7.7 °C 29.91 in /  1012.8 hPa SSW 6.9 mph /  11.1 km/h 11 mph /  17.7 km/h 25 % 0 in /  0 mm
08:04 53.2 °F /  11.8 °C 18.3 °F /  -7.6 °C 29.92 in /  1013.1 hPa SW 8.9 mph /  14.3 km/h 12 mph /  19.3 km/h 25 % 0 in /  0 mm
08:09 53.1 °F /  11.7 °C 19 °F /  -7.2 °C 29.91 in /  1012.8 hPa South 11 mph /  17.7 km/h 11 mph /  17.7 km/h 26 % 0 in /  0 mm
08:14 53.2 °F /  11.8 °C 21 °F /  -6.1 °C 29.92 in /  1013.1 hPa SW 6 mph /  9.7 km/h 9 mph /  14.5 km/h 28 % 0 in /  0 mm
08:19 54.9 °F /  12.7 °C 20.7 °F /  -6.3 °C 29.92 in /  1013.1 hPa SW 2 mph /  3.2 km/h 5 mph /  8 km/h 26 % 0 in /  0 mm
08:24 56.8 °F /  13.8 °C 21.4 °F /  -5.9 °C 29.92 in /  1013.1 hPa SSW 2.9 mph /  4.7 km/h 4 mph /  6.4 km/h 25 % 0 in /  0 mm
08:29 58.3 °F /  14.6 °C 21.6 °F /  -5.8 °C 29.92 in /  1013.1 hPa SSW 4 mph /  6.4 km/h 5 mph /  8 km/h 24 % 0 in /  0 mm
08:34 59.4 °F /  15.2 °C 22.6 °F /  -5.2 °C 29.92 in /  1013.1 hPa SW 4 mph /  6.4 km/h 5 mph /  8 km/h 24 % 0 in /  0 mm
08:39 59.9 °F /  15.5 °C 23 °F /  -5 °C 29.92 in /  1013.1 hPa South 2.9 mph /  4.7 km/h 7 mph /  11.3 km/h 24 % 0 in /  0 mm
08:44 61 °F /  16.1 °C 23.9 °F /  -4.5 °C 29.92 in /  1013.1 hPa SSW 0.9 mph /  1.4 km/h 3 mph /  4.8 km/h 24 % 0 in /  0 mm
08:49 62.2 °F /  16.8 °C 25 °F /  -3.9 °C 29.92 in /  1013.1 hPa SW 2.9 mph /  4.7 km/h 3 mph /  4.8 km/h 24 % 0 in /  0 mm
08:54 63.3 °F /  17.4 °C 24.8 °F /  -4 °C 29.92 in /  1013.1 hPa Calm   1 mph /  1.6 km/h 23 % 0 in /  0 mm
08:59 64.6 °F /  18.1 °C 28 °F /  -2.2 °C 29.91 in /  1012.8 hPa SE 0.9 mph /  1.4 km/h 3 mph /  4.8 km/h 25 % 0 in /  0 mm
09:04 64.9 °F /  18.3 °C 26.2 °F /  -3.2 °C 29.91 in /  1012.8 hPa Calm   1 mph /  1.6 km/h 23 % 0 in /  0 mm
09:09 65.8 °F /  18.8 °C 27 °F /  -2.8 °C 29.91 in /  1012.8 hPa Calm   2 mph /  3.2 km/h 23 % 0 in /  0 mm
09:14 66.9 °F /  19.4 °C 24.6 °F /  -4.1 °C 29.91 in /  1012.8 hPa Calm   2 mph /  3.2 km/h 20 % 0 in /  0 mm
09:19 68 °F /  20 °C 25.3 °F /  -3.7 °C 29.91 in /  1012.8 hPa Calm   1 mph /  1.6 km/h 20 % 0 in /  0 mm
09:24 69.3 °F /  20.7 °C 26.4 °F /  -3.1 °C 29.91 in /  1012.8 hPa East 0.9 mph /  1.4 km/h 2 mph /  3.2 km/h 20 % 0 in /  0 mm
09:29 70.3 °F /  21.3 °C 30.7 °F /  -0.7 °C 29.91 in /  1012.8 hPa East 0.9 mph /  1.4 km/h 2 mph /  3.2 km/h 23 % 0 in /  0 mm
09:34 70.5 °F /  21.4 °C 22.1 °F /  -5.5 °C 29.91 in /  1012.8 hPa SW 0.9 mph /  1.4 km/h 2 mph /  3.2 km/h 16 % 0 in /  0 mm
09:39 71.2 °F /  21.8 °C 22.8 °F /  -5.1 °C 29.91 in /  1012.8 hPa Calm   1 mph /  1.6 km/h 16 % 0 in /  0 mm
09:44 72.9 °F /  22.7 °C 29.5 °F /  -1.4 °C 29.91 in /  1012.8 hPa ENE 4.9 mph /  7.9 km/h 5 mph /  8 km/h 20 % 0 in /  0 mm
09:49 72.7 °F /  22.6 °C 30.6 °F /  -0.8 °C 29.91 in /  1012.8 hPa ENE 0.9 mph /  1.4 km/h 3 mph /  4.8 km/h 21 % 0 in /  0 mm
09:54 73.6 °F /  23.1 °C 30 °F /  -1.1 °C 29.91 in /  1012.8 hPa NE 0.9 mph /  1.4 km/h 3 mph /  4.8 km/h 20 % 0 in /  0 mm
09:59 73.8 °F /  23.2 °C 27.7 °F /  -2.4 °C 29.91 in /  1012.8 hPa ENE 0.9 mph /  1.4 km/h 4 mph /  6.4 km/h 18 % 0 in /  0 mm
10:04 74.7 °F /  23.7 °C 28.4 °F /  -2 °C 29.90 in /  1012.4 hPa East 2 mph /  3.2 km/h 3 mph /  4.8 km/h 18 % 0 in /  0 mm
10:09 75.2 °F /  24 °C 27.3 °F /  -2.6 °C 29.91 in /  1012.8 hPa NE 2 mph /  3.2 km/h 4 mph /  6.4 km/h 17 % 0 in /  0 mm
10:14 75.4 °F /  24.1 °C 24.4 °F /  -4.2 °C 29.91 in /  1012.8 hPa NE 2 mph /  3.2 km/h 3 mph /  4.8 km/h 15 % 0 in /  0 mm
10:19 75.2 °F /  24 °C 21 °F /  -6.1 °C 29.90 in /  1012.4 hPa NE 0.9 mph /  1.4 km/h 4 mph /  6.4 km/h 13 % 0 in /  0 mm
10:24 75 °F /  23.9 °C 22.6 °F /  -5.2 °C 29.90 in /  1012.4 hPa ENE 4.9 mph /  7.9 km/h 5 mph /  8 km/h 14 % 0 in /  0 mm
10:29 75.4 °F /  24.1 °C 24.4 °F /  -4.2 °C 29.90 in /  1012.4 hPa ENE 2 mph /  3.2 km/h 4 mph /  6.4 km/h 15 % 0 in /  0 mm
10:34 75.4 °F /  24.1 °C 26.1 °F /  -3.3 °C 29.90 in /  1012.4 hPa ENE 4.9 mph /  7.9 km/h 6 mph /  9.7 km/h 16 % 0 in /  0 mm
10:39 75.7 °F /  24.3 °C 21.4 °F /  -5.9 °C 29.90 in /  1012.4 hPa ENE 8.1 mph /  13 km/h 16 mph /  25.7 km/h 13 % 0 in /  0 mm
10:44 75.4 °F /  24.1 °C 21.2 °F /  -6 °C 29.90 in /  1012.4 hPa East 11 mph /  17.7 km/h 17 mph /  27.4 km/h 13 % 0 in /  0 mm
10:49 75.6 °F /  24.2 °C 23 °F /  -5 °C 29.90 in /  1012.4 hPa ENE 13 mph /  20.9 km/h 20 mph /  32.2 km/h 14 % 0 in /  0 mm
10:54 75.2 °F /  24 °C 19 °F /  -7.2 °C 29.90 in /  1012.4 hPa ENE 11 mph /  17.7 km/h 16 mph /  25.7 km/h 12 % 0 in /  0 mm
10:59 75.6 °F /  24.2 °C 19.4 °F /  -7 °C 29.90 in /  1012.4 hPa ENE 8.9 mph /  14.3 km/h 13 mph /  20.9 km/h 12 % 0 in /  0 mm
11:04 75.4 °F /  24.1 °C 21.2 °F /  -6 °C 29.90 in /  1012.4 hPa ENE 14.1 mph /  22.7 km/h 17 mph /  27.4 km/h 13 % 0 in /  0 mm
11:09 75.6 °F /  24.2 °C 15.1 °F /  -9.4 °C 29.90 in /  1012.4 hPa ENE 13 mph /  20.9 km/h 18 mph /  29 km/h 10 % 0 in /  0 mm
11:14 75.4 °F /  24.1 °C 19.2 °F /  -7.1 °C 29.90 in /  1012.4 hPa NE 8.9 mph /  14.3 km/h 18 mph /  29 km/h 12 % 0 in /  0 mm
11:19 76.1 °F /  24.5 °C 17.8 °F /  -7.9 °C 29.90 in /  1012.4 hPa East 10.1 mph /  16.3 km/h 14 mph /  22.5 km/h 11 % 0 in /  0 mm
11:24 76.5 °F /  24.7 °C 20.1 °F /  -6.6 °C 29.90 in /  1012.4 hPa ENE 6.9 mph /  11.1 km/h 16 mph /  25.7 km/h 12 % 0 in /  0 mm
11:29 76.3 °F /  24.6 °C 18 °F /  -7.8 °C 29.89 in /  1012.1 hPa ENE 8.1 mph /  13 km/h 19 mph /  30.6 km/h 11 % 0 in /  0 mm
11:34 76.6 °F /  24.8 °C 18.1 °F /  -7.7 °C 29.89 in /  1012.1 hPa ENE 15 mph /  24.1 km/h 18 mph /  29 km/h 11 % 0 in /  0 mm
11:39 76.3 °F /  24.6 °C 18 °F /  -7.8 °C 29.89 in /  1012.1 hPa NE 11 mph /  17.7 km/h 19 mph /  30.6 km/h 11 % 0 in /  0 mm
11:44 76.3 °F /  24.6 °C 19.9 °F /  -6.7 °C 29.89 in /  1012.1 hPa East 16.1 mph /  25.9 km/h 19 mph /  30.6 km/h 12 % 0 in /  0 mm
11:49 76.8 °F /  24.9 °C 20.3 °F /  -6.5 °C 29.89 in /  1012.1 hPa ENE 13 mph /  20.9 km/h 22 mph /  35.4 km/h 12 % 0 in /  0 mm
11:54 75.9 °F /  24.4 °C 15.4 °F /  -9.2 °C 29.89 in /  1012.1 hPa ENE 16.1 mph /  25.9 km/h 20 mph /  32.2 km/h 10 % 0 in /  0 mm
11:59 76.3 °F /  24.6 °C 19.9 °F /  -6.7 °C 29.89 in /  1012.1 hPa ENE 16.1 mph /  25.9 km/h 16 mph /  25.7 km/h 12 % 0 in /  0 mm
12:04 76.5 °F /  24.7 °C 20.1 °F /  -6.6 °C 29.89 in /  1012.1 hPa ENE 10.1 mph /  16.3 km/h 15 mph /  24.1 km/h 12 % 0 in /  0 mm
12:09 76.5 °F /  24.7 °C 15.8 °F /  -9 °C 29.89 in /  1012.1 hPa NE 6.9 mph /  11.1 km/h 20 mph /  32.2 km/h 10 % 0 in /  0 mm
12:14 77.2 °F /  25.1 °C 16.3 °F /  -8.7 °C 29.88 in /  1011.7 hPa NE 4.9 mph /  7.9 km/h 16 mph /  25.7 km/h 10 % 0 in /  0 mm
12:19 77.5 °F /  25.3 °C 16.7 °F /  -8.5 °C 29.88 in /  1011.7 hPa NE 4 mph /  6.4 km/h 18 mph /  29 km/h 10 % 0 in /  0 mm
12:24 77.4 °F /  25.2 °C 18.7 °F /  -7.4 °C 29.88 in /  1011.7 hPa ENE 12.1 mph /  19.5 km/h 20 mph /  32.2 km/h 11 % 0 in /  0 mm
12:29 77.2 °F /  25.1 °C 20.7 °F /  -6.3 °C 29.88 in /  1011.7 hPa East 2.9 mph /  4.7 km/h 16 mph /  25.7 km/h 12 % 0 in /  0 mm
12:34 77.2 °F /  25.1 °C 18.7 °F /  -7.4 °C 29.87 in /  1011.4 hPa SSW 2.9 mph /  4.7 km/h 20 mph /  32.2 km/h 11 % 0 in /  0 mm
12:39 77.7 °F /  25.4 °C 19 °F /  -7.2 °C 29.87 in /  1011.4 hPa East 25.1 mph /  40.4 km/h 25 mph /  40.2 km/h 11 % 0 in /  0 mm
12:44 77 °F /  25 °C 20.5 °F /  -6.4 °C 29.87 in /  1011.4 hPa ENE 8.9 mph /  14.3 km/h 24 mph /  38.6 km/h 12 % 0 in /  0 mm
12:49 77.7 °F /  25.4 °C 19 °F /  -7.2 °C 29.87 in /  1011.4 hPa NE 6 mph /  9.7 km/h 14 mph /  22.5 km/h 11 % 0 in /  0 mm
12:54 77.7 °F /  25.4 °C 21 °F /  -6.1 °C 29.87 in /  1011.4 hPa ENE 13 mph /  20.9 km/h 20 mph /  32.2 km/h 12 % 0 in /  0 mm
12:59 77.7 °F /  25.4 °C 21 °F /  -6.1 °C 29.86 in /  1011.1 hPa ENE 19.9 mph /  32 km/h 20 mph /  32.2 km/h 12 % 0 in /  0 mm
13:04 77 °F /  25 °C 20.5 °F /  -6.4 °C 29.86 in /  1011.1 hPa NNE 17 mph /  27.4 km/h 20 mph /  32.2 km/h 12 % 0 in /  0 mm
13:09 76.6 °F /  24.8 °C 22.1 °F /  -5.5 °C 29.86 in /  1011.1 hPa ENE 19.9 mph /  32 km/h 23 mph /  37 km/h 13 % 0 in /  0 mm
13:14 76.6 °F /  24.8 °C 22.1 °F /  -5.5 °C 29.86 in /  1011.1 hPa NE 17 mph /  27.4 km/h 21 mph /  33.8 km/h 13 % 0 in /  0 mm
13:19 76.8 °F /  24.9 °C 22.3 °F /  -5.4 °C 29.86 in /  1011.1 hPa ENE 19 mph /  30.6 km/h 21 mph /  33.8 km/h 13 % 0 in /  0 mm
13:24 78.1 °F /  25.6 °C 23.2 °F /  -4.9 °C 29.86 in /  1011.1 hPa ENE 8.9 mph /  14.3 km/h 13 mph /  20.9 km/h 13 % 0 in /  0 mm
13:29 77.5 °F /  25.3 °C 20.8 °F /  -6.2 °C 29.86 in /  1011.1 hPa ENE 19 mph /  30.6 km/h 25 mph /  40.2 km/h 12 % 0 in /  0 mm
13:34 77.5 °F /  25.3 °C 22.8 °F /  -5.1 °C 29.85 in /  1010.7 hPa NE 17.9 mph /  28.8 km/h 22 mph /  35.4 km/h 13 % 0 in /  0 mm
13:39 78.1 °F /  25.6 °C 23.2 °F /  -4.9 °C 29.85 in /  1010.7 hPa ENE 11 mph /  17.7 km/h 18 mph /  29 km/h 13 % 0 in /  0 mm
13:44 78.6 °F /  25.9 °C 23.7 °F /  -4.6 °C 29.85 in /  1010.7 hPa East 17 mph /  27.4 km/h 24 mph /  38.6 km/h 13 % 0 in /  0 mm
13:49 78.4 °F /  25.8 °C 25.3 °F /  -3.7 °C 29.85 in /  1010.7 hPa NE 8.1 mph /  13 km/h 18 mph /  29 km/h 14 % 0 in /  0 mm
13:54 79 °F /  26.1 °C 23.9 °F /  -4.5 °C 29.85 in /  1010.7 hPa ENE 15 mph /  24.1 km/h 19 mph /  30.6 km/h 13 % 0 in /  0 mm
13:59 78.4 °F /  25.8 °C 23.5 °F /  -4.7 °C 29.85 in /  1010.7 hPa ENE 14.1 mph /  22.7 km/h 23 mph /  37 km/h 13 % 0 in /  0 mm
14:04 78.1 °F /  25.6 °C 23.2 °F /  -4.9 °C 29.85 in /  1010.7 hPa ENE 12.1 mph /  19.5 km/h 24 mph /  38.6 km/h 13 % 0 in /  0 mm
14:09 79 °F /  26.1 °C 23.9 °F /  -4.5 °C 29.84 in /  1010.4 hPa NE 15 mph /  24.1 km/h 22 mph /  35.4 km/h 13 % 0 in /  0 mm
14:14 79.3 °F /  26.3 °C 24.3 °F /  -4.3 °C 29.84 in /  1010.4 hPa NE 15 mph /  24.1 km/h 18 mph /  29 km/h 13 % 0 in /  0 mm
14:19 79 °F /  26.1 °C 23.9 °F /  -4.5 °C 29.84 in /  1010.4 hPa ENE 17.9 mph /  28.8 km/h 18 mph /  29 km/h 13 % 0 in /  0 mm
14:24 79 °F /  26.1 °C 23.9 °F /  -4.5 °C 29.84 in /  1010.4 hPa ENE 15 mph /  24.1 km/h 19 mph /  30.6 km/h 13 % 0 in /  0 mm
14:29 79.5 °F /  26.4 °C 24.4 °F /  -4.2 °C 29.84 in /  1010.4 hPa ENE 6.9 mph /  11.1 km/h 15 mph /  24.1 km/h 13 % 0 in /  0 mm
14:34 79.5 °F /  26.4 °C 26.1 °F /  -3.3 °C 29.84 in /  1010.4 hPa ENE 19 mph /  30.6 km/h 19 mph /  30.6 km/h 14 % 0 in /  0 mm
14:39 79.5 °F /  26.4 °C 24.4 °F /  -4.2 °C 29.84 in /  1010.4 hPa NNW 14.1 mph /  22.7 km/h 20 mph /  32.2 km/h 13 % 0 in /  0 mm
14:44 79.9 °F /  26.6 °C 22.8 °F /  -5.1 °C 29.84 in /  1010.4 hPa NE 8.9 mph /  14.3 km/h 18 mph /  29 km/h 12 % 0 in /  0 mm
14:49 79.2 °F /  26.2 °C 24.1 °F /  -4.4 °C 29.83 in /  1010 hPa ENE 17.9 mph /  28.8 km/h 26 mph /  41.8 km/h 13 % 0 in /  0 mm
14:54 79.2 °F /  26.2 °C 22.1 °F /  -5.5 °C 29.83 in /  1010 hPa NE 16.1 mph /  25.9 km/h 28 mph /  45.1 km/h 12 % 0 in /  0 mm
14:59 78.6 °F /  25.9 °C 21.7 °F /  -5.7 °C 29.83 in /  1010 hPa East 16.1 mph /  25.9 km/h 28 mph /  45.1 km/h 12 % 0 in /  0 mm
15:04 79 °F /  26.1 °C 23.9 °F /  -4.5 °C 29.83 in /  1010 hPa ENE 8.9 mph /  14.3 km/h 15 mph /  24.1 km/h 13 % 0 in /  0 mm
15:09 78.8 °F /  26 °C 21.9 °F /  -5.6 °C 29.83 in /  1010 hPa ENE 19 mph /  30.6 km/h 24 mph /  38.6 km/h 12 % 0 in /  0 mm
15:14 78.8 °F /  26 °C 23.7 °F /  -4.6 °C 29.83 in /  1010 hPa ENE 10.1 mph /  16.3 km/h 24 mph /  38.6 km/h 13 % 0 in /  0 mm
15:19 78.8 °F /  26 °C 23.7 °F /  -4.6 °C 29.83 in /  1010 hPa ENE 27.1 mph /  43.6 km/h 27 mph /  43.5 km/h 13 % 0 in /  0 mm
15:24 78.4 °F /  25.8 °C 23.5 °F /  -4.7 °C 29.83 in /  1010 hPa ENE 25.1 mph /  40.4 km/h 29 mph /  46.7 km/h 13 % 0 in /  0 mm
15:29 78.3 °F /  25.7 °C 25.2 °F /  -3.8 °C 29.83 in /  1010 hPa East 19 mph /  30.6 km/h 25 mph /  40.2 km/h 14 % 0 in /  0 mm
15:34 78.3 °F /  25.7 °C 23.4 °F /  -4.8 °C 29.83 in /  1010 hPa ENE 21.9 mph /  35.2 km/h 31 mph /  49.9 km/h 13 % 0 in /  0 mm
15:39 78.4 °F /  25.8 °C 25.3 °F /  -3.7 °C 29.83 in /  1010 hPa ENE 12.1 mph /  19.5 km/h 20 mph /  32.2 km/h 14 % 0 in /  0 mm
15:44 79 °F /  26.1 °C 25.7 °F /  -3.5 °C 29.83 in /  1010 hPa NE 17 mph /  27.4 km/h 23 mph /  37 km/h 14 % 0 in /  0 mm
15:49 78.8 °F /  26 °C 25.5 °F /  -3.6 °C 29.83 in /  1010 hPa ENE 19 mph /  30.6 km/h 32 mph /  51.5 km/h 14 % 0 in /  0 mm
15:54 78.6 °F /  25.9 °C 23.7 °F /  -4.6 °C 29.83 in /  1010 hPa ENE 23 mph /  37 km/h 24 mph /  38.6 km/h 13 % 0 in /  0 mm
15:59 78.4 °F /  25.8 °C 23.5 °F /  -4.7 °C 29.83 in /  1010 hPa ENE 21 mph /  33.8 km/h 24 mph /  38.6 km/h 13 % 0 in /  0 mm
16:04 78.4 °F /  25.8 °C 25.3 °F /  -3.7 °C 29.83 in /  1010 hPa ENE 29.1 mph /  46.8 km/h 29 mph /  46.7 km/h 14 % 0 in /  0 mm
16:09 78.6 °F /  25.9 °C 25.5 °F /  -3.6 °C 29.83 in /  1010 hPa ENE 17.9 mph /  28.8 km/h 19 mph /  30.6 km/h 14 % 0 in /  0 mm
16:14 78.4 °F /  25.8 °C 23.5 °F /  -4.7 °C 29.83 in /  1010 hPa East 17 mph /  27.4 km/h 24 mph /  38.6 km/h 13 % 0 in /  0 mm
16:19 78.3 °F /  25.7 °C 25.2 °F /  -3.8 °C 29.83 in /  1010 hPa ENE 16.1 mph /  25.9 km/h 20 mph /  32.2 km/h 14 % 0 in /  0 mm
16:24 78.4 °F /  25.8 °C 25.3 °F /  -3.7 °C 29.83 in /  1010 hPa ENE 17.9 mph /  28.8 km/h 20 mph /  32.2 km/h 14 % 0 in /  0 mm
16:29 78.4 °F /  25.8 °C 25.3 °F /  -3.7 °C 29.83 in /  1010 hPa ENE 8.1 mph /  13 km/h 16 mph /  25.7 km/h 14 % 0 in /  0 mm
16:34 78.4 °F /  25.8 °C 25.3 °F /  -3.7 °C 29.83 in /  1010 hPa ENE 8.9 mph /  14.3 km/h 17 mph /  27.4 km/h 14 % 0 in /  0 mm
16:39 78.6 °F /  25.9 °C 25.5 °F /  -3.6 °C 29.82 in /  1009.7 hPa NE 19.9 mph /  32 km/h 22 mph /  35.4 km/h 14 % 0 in /  0 mm
16:44 78.6 °F /  25.9 °C 25.5 °F /  -3.6 °C 29.83 in /  1010 hPa ENE 19 mph /  30.6 km/h 25 mph /  40.2 km/h 14 % 0 in /  0 mm
16:49 78.6 °F /  25.9 °C 25.5 °F /  -3.6 °C 29.83 in /  1010 hPa ENE 21 mph /  33.8 km/h 21 mph /  33.8 km/h 14 % 0 in /  0 mm
16:54 78.4 °F /  25.8 °C 25.3 °F /  -3.7 °C 29.82 in /  1009.7 hPa ENE 25.1 mph /  40.4 km/h 25 mph /  40.2 km/h 14 % 0 in /  0 mm
16:59 78.4 °F /  25.8 °C 25.3 °F /  -3.7 °C 29.82 in /  1009.7 hPa ENE 23 mph /  37 km/h 23 mph /  37 km/h 14 % 0 in /  0 mm
17:04 78.4 °F /  25.8 °C 25.3 °F /  -3.7 °C 29.82 in /  1009.7 hPa ENE 25.9 mph /  41.7 km/h 31 mph /  49.9 km/h 14 % 0 in /  0 mm
17:09 78.6 °F /  25.9 °C 25.5 °F /  -3.6 °C 29.82 in /  1009.7 hPa NE 15 mph /  24.1 km/h 26 mph /  41.8 km/h 14 % 0 in /  0 mm
17:13 78.6 °F /  25.9 °C 25.5 °F /  -3.6 °C 29.82 in /  1009.7 hPa East 12.1 mph /  19.5 km/h 20 mph /  32.2 km/h 14 % 0 in /  0 mm
17:19 78.6 °F /  25.9 °C 25.5 °F /  -3.6 °C 29.82 in /  1009.7 hPa ENE 21.9 mph /  35.2 km/h 24 mph /  38.6 km/h 14 % 0 in /  0 mm
17:24 78.6 °F /  25.9 °C 25.5 °F /  -3.6 °C 29.82 in /  1009.7 hPa NE 19 mph /  30.6 km/h 26 mph /  41.8 km/h 14 % 0 in /  0 mm
17:29 78.6 °F /  25.9 °C 25.5 °F /  -3.6 °C 29.82 in /  1009.7 hPa NE 13 mph /  20.9 km/h 19 mph /  30.6 km/h 14 % 0 in /  0 mm
17:34 78.4 °F /  25.8 °C 25.3 °F /  -3.7 °C 29.82 in /  1009.7 hPa NE 6.9 mph /  11.1 km/h 20 mph /  32.2 km/h 14 % 0 in /  0 mm
17:39 78.3 °F /  25.7 °C 25.2 °F /  -3.8 °C 29.82 in /  1009.7 hPa ENE 8.9 mph /  14.3 km/h 19 mph /  30.6 km/h 14 % 0 in /  0 mm
17:44 78.4 °F /  25.8 °C 27 °F /  -2.8 °C 29.82 in /  1009.7 hPa ENE 15 mph /  24.1 km/h 15 mph /  24.1 km/h 15 % 0 in /  0 mm
17:49 78.6 °F /  25.9 °C 25.5 °F /  -3.6 °C 29.83 in /  1010 hPa ENE 8.9 mph /  14.3 km/h 10 mph /  16.1 km/h 14 % 0 in /  0 mm
17:54 78.4 °F /  25.8 °C 25.3 °F /  -3.7 °C 29.83 in /  1010 hPa NE 10.1 mph /  16.3 km/h 19 mph /  30.6 km/h 14 % 0 in /  0 mm
17:59 78.3 °F /  25.7 °C 26.8 °F /  -2.9 °C 29.83 in /  1010 hPa ENE 4.9 mph /  7.9 km/h 15 mph /  24.1 km/h 15 % 0 in /  0 mm
18:04 78.3 °F /  25.7 °C 26.8 °F /  -2.9 °C 29.83 in /  1010 hPa ENE 8.1 mph /  13 km/h 11 mph /  17.7 km/h 15 % 0 in /  0 mm
18:09 77.9 °F /  25.5 °C 26.6 °F /  -3 °C 29.83 in /  1010 hPa NE 8.1 mph /  13 km/h 11 mph /  17.7 km/h 15 % 0 in /  0 mm
18:14 77.7 °F /  25.4 °C 26.4 °F /  -3.1 °C 29.83 in /  1010 hPa ENE 12.1 mph /  19.5 km/h 16 mph /  25.7 km/h 15 % 0 in /  0 mm
18:17 77.7 °F /  25.4 °C 26.4 °F /  -3.1 °C 29.83 in /  1010 hPa ENE 10.1 mph /  16.3 km/h 18 mph /  29 km/h 15 % 0 in /  0 mm
18:23 77.5 °F /  25.3 °C 26.2 °F /  -3.2 °C 29.83 in /  1010 hPa ENE 14.1 mph /  22.7 km/h 14 mph /  22.5 km/h 15 % 0 in /  0 mm
18:29 77.4 °F /  25.2 °C 26.1 °F /  -3.3 °C 29.84 in /  1010.4 hPa ENE 8.1 mph /  13 km/h 15 mph /  24.1 km/h 15 % 0 in /  0 mm
18:34 77.2 °F /  25.1 °C 25.9 °F /  -3.4 °C 29.84 in /  1010.4 hPa ENE 10.1 mph /  16.3 km/h 11 mph /  17.7 km/h 15 % 0 in /  0 mm
18:37 77.2 °F /  25.1 °C 25.9 °F /  -3.4 °C 29.84 in /  1010.4 hPa ENE 8.1 mph /  13 km/h 11 mph /  17.7 km/h 15 % 0 in /  0 mm
18:44 76.6 °F /  24.8 °C 27.1 °F /  -2.7 °C 29.84 in /  1010.4 hPa North 4.9 mph /  7.9 km/h 9 mph /  14.5 km/h 16 % 0 in /  0 mm
18:49 76.3 °F /  24.6 °C 26.8 °F /  -2.9 °C 29.84 in /  1010.4 hPa NE 4 mph /  6.4 km/h 6 mph /  9.7 km/h 16 % 0 in /  0 mm
18:54 75.7 °F /  24.3 °C 26.4 °F /  -3.1 °C 29.85 in /  1010.7 hPa NE 4 mph /  6.4 km/h 7 mph /  11.3 km/h 16 % 0 in /  0 mm
18:59 75.4 °F /  24.1 °C 27.5 °F /  -2.5 °C 29.85 in /  1010.7 hPa ENE 4 mph /  6.4 km/h 4 mph /  6.4 km/h 17 % 0 in /  0 mm
19:04 74.8 °F /  23.8 °C 27.1 °F /  -2.7 °C 29.85 in /  1010.7 hPa ENE 0.9 mph /  1.4 km/h 6 mph /  9.7 km/h 17 % 0 in /  0 mm
19:09 74.7 °F /  23.7 °C 27 °F /  -2.8 °C 29.85 in /  1010.7 hPa Calm   3 mph /  4.8 km/h 17 % 0 in /  0 mm
19:10 74.5 °F /  23.6 °C 26.8 °F /  -2.9 °C 29.85 in /  1010.7 hPa Calm   2 mph /  3.2 km/h 17 % 0 in /  0 mm
20:19 66.9 °F /  19.4 °C 27.9 °F /  -2.3 °C 29.88 in /  1011.7 hPa SW 8.1 mph /  13 km/h 8 mph /  12.9 km/h 23 % 0 in /  0 mm
20:24 66 °F /  18.9 °C 28.2 °F /  -2.1 °C 0.00 in /  0 hPa SSW 6.9 mph /  11.1 km/h -999 mph /  -1607.7 km/h 24 % 0 in /  0 mm
20:29 65.1 °F /  18.4 °C 28.4 °F /  -2 °C 29.89 in /  1012.1 hPa South 8.9 mph /  14.3 km/h 11 mph /  17.7 km/h 25 % 0 in /  0 mm
20:34 64.9 °F /  18.3 °C 28.2 °F /  -2.1 °C 29.89 in /  1012.1 hPa SSE 8.1 mph /  13 km/h 10 mph /  16.1 km/h 25 % 0 in /  0 mm
20:38 64.6 °F /  18.1 °C 28 °F /  -2.2 °C 29.89 in /  1012.1 hPa SSE 8.1 mph /  13 km/h 13 mph /  20.9 km/h 25 % 0 in /  0 mm
20:49 62.6 °F /  17 °C 29.1 °F /  -1.6 °C 29.90 in /  1012.4 hPa SSE 8.1 mph /  13 km/h 10 mph /  16.1 km/h 28 % 0 in /  0 mm
20:54 61.9 °F /  16.6 °C 29.3 °F /  -1.5 °C 29.90 in /  1012.4 hPa SW 8.1 mph /  13 km/h 13 mph /  20.9 km/h 29 % 0 in /  0 mm
20:59 61.5 °F /  16.4 °C 28.9 °F /  -1.7 °C 29.90 in /  1012.4 hPa South 10.1 mph /  16.3 km/h 12 mph /  19.3 km/h 29 % 0 in /  0 mm
21:04 61.5 °F /  16.4 °C 28.9 °F /  -1.7 °C 29.91 in /  1012.8 hPa South 8.9 mph /  14.3 km/h 12 mph /  19.3 km/h 29 % 0 in /  0 mm
21:09 61.7 °F /  16.5 °C 28.2 °F /  -2.1 °C 29.91 in /  1012.8 hPa SSW 10.1 mph /  16.3 km/h 13 mph /  20.9 km/h 28 % 0 in /  0 mm
21:14 61.5 °F /  16.4 °C 28.9 °F /  -1.7 °C 29.91 in /  1012.8 hPa SSW 6.9 mph /  11.1 km/h 12 mph /  19.3 km/h 29 % 0 in /  0 mm
21:19 61.3 °F /  16.3 °C 28.8 °F /  -1.8 °C 29.91 in /  1012.8 hPa SSW 8.1 mph /  13 km/h 14 mph /  22.5 km/h 29 % 0 in /  0 mm
21:24 61.2 °F /  16.2 °C 28.6 °F /  -1.9 °C 29.91 in /  1012.8 hPa SSW 8.1 mph /  13 km/h 13 mph /  20.9 km/h 29 % 0 in /  0 mm
21:29 61 °F /  16.1 °C 28.6 °F /  -1.9 °C 29.91 in /  1012.8 hPa South 12.1 mph /  19.5 km/h 14 mph /  22.5 km/h 29 % 0 in /  0 mm
21:34 60.6 °F /  15.9 °C 28.2 °F /  -2.1 °C 29.91 in /  1012.8 hPa SSW 12.1 mph /  19.5 km/h 12 mph /  19.3 km/h 29 % 0 in /  0 mm
21:39 60.3 °F /  15.7 °C 27.9 °F /  -2.3 °C 29.91 in /  1012.8 hPa South 8.1 mph /  13 km/h 14 mph /  22.5 km/h 29 % 0 in /  0 mm
21:44 59.4 °F /  15.2 °C 27.9 °F /  -2.3 °C 29.92 in /  1013.1 hPa SSE 11 mph /  17.7 km/h 16 mph /  25.7 km/h 30 % 0 in /  0 mm
21:49 59.2 °F /  15.1 °C 27.7 °F /  -2.4 °C 29.92 in /  1013.1 hPa SSW 10.1 mph /  16.3 km/h 13 mph /  20.9 km/h 30 % 0 in /  0 mm
21:54 59.4 °F /  15.2 °C 27.9 °F /  -2.3 °C 29.92 in /  1013.1 hPa SSE 8.9 mph /  14.3 km/h 12 mph /  19.3 km/h 30 % 0 in /  0 mm
21:59 59.5 °F /  15.3 °C 28 °F /  -2.2 °C 29.92 in /  1013.1 hPa SSW 13 mph /  20.9 km/h 13 mph /  20.9 km/h 30 % 0 in /  0 mm
22:04 59.7 °F /  15.4 °C 27.3 °F /  -2.6 °C 29.92 in /  1013.1 hPa SSW 8.9 mph /  14.3 km/h 13 mph /  20.9 km/h 29 % 0 in /  0 mm
22:09 60.3 °F /  15.7 °C 27.9 °F /  -2.3 °C 29.92 in /  1013.1 hPa SSW 10.1 mph /  16.3 km/h 14 mph /  22.5 km/h 29 % 0 in /  0 mm
22:14 59.5 °F /  15.3 °C 28 °F /  -2.2 °C 29.92 in /  1013.1 hPa SSW 8.9 mph /  14.3 km/h 13 mph /  20.9 km/h 30 % 0 in /  0 mm
22:19 57.7 °F /  14.3 °C 28 °F /  -2.2 °C 29.92 in /  1013.1 hPa SSE 11 mph /  17.7 km/h 14 mph /  22.5 km/h 32 % 0 in /  0 mm
22:24 57.4 °F /  14.1 °C 27.7 °F /  -2.4 °C 29.93 in /  1013.4 hPa SSW 8.1 mph /  13 km/h 16 mph /  25.7 km/h 32 % 0 in /  0 mm
22:29 56.8 °F /  13.8 °C 28 °F /  -2.2 °C 29.93 in /  1013.4 hPa SSW 12.1 mph /  19.5 km/h 14 mph /  22.5 km/h 33 % 0 in /  0 mm
22:34 56.3 °F /  13.5 °C 28.2 °F /  -2.1 °C 29.93 in /  1013.4 hPa SW 12.1 mph /  19.5 km/h 14 mph /  22.5 km/h 34 % 0 in /  0 mm
22:39 56.1 °F /  13.4 °C 27.3 °F /  -2.6 °C 29.93 in /  1013.4 hPa South 11 mph /  17.7 km/h 14 mph /  22.5 km/h 33 % 0 in /  0 mm
22:44 55.8 °F /  13.2 °C 27.9 °F /  -2.3 °C 29.93 in /  1013.4 hPa SSW 6.9 mph /  11.1 km/h 14 mph /  22.5 km/h 34 % 0 in /  0 mm
22:49 55.6 °F /  13.1 °C 27.7 °F /  -2.4 °C 29.93 in /  1013.4 hPa SW 10.1 mph /  16.3 km/h 13 mph /  20.9 km/h 34 % 0 in /  0 mm
22:54 55.2 °F /  12.9 °C 28 °F /  -2.2 °C 29.93 in /  1013.4 hPa SW 8.1 mph /  13 km/h 14 mph /  22.5 km/h 35 % 0 in /  0 mm
22:59 54.9 °F /  12.7 °C 27.7 °F /  -2.4 °C 29.93 in /  1013.4 hPa SSE 8.1 mph /  13 km/h 11 mph /  17.7 km/h 35 % 0 in /  0 mm
23:04 54.9 °F /  12.7 °C 27.7 °F /  -2.4 °C 29.93 in /  1013.4 hPa SW 8.9 mph /  14.3 km/h 12 mph /  19.3 km/h 35 % 0 in /  0 mm
23:09 54.9 °F /  12.7 °C 27.7 °F /  -2.4 °C 29.93 in /  1013.4 hPa WSW 12.1 mph /  19.5 km/h 12 mph /  19.3 km/h 35 % 0 in /  0 mm
23:14 54.7 °F /  12.6 °C 27.5 °F /  -2.5 °C 29.94 in /  1013.8 hPa SW 8.1 mph /  13 km/h 12 mph /  19.3 km/h 35 % 0 in /  0 mm
23:19 54.5 °F /  12.5 °C 27.3 °F /  -2.6 °C 29.94 in /  1013.8 hPa SSW 8.1 mph /  13 km/h 9 mph /  14.5 km/h 35 % 0 in /  0 mm
23:24 54.3 °F /  12.4 °C 27.3 °F /  -2.6 °C 29.94 in /  1013.8 hPa WSW 6.9 mph /  11.1 km/h 9 mph /  14.5 km/h 35 % 0 in /  0 mm
23:29 54.7 °F /  12.6 °C 27.5 °F /  -2.5 °C 29.94 in /  1013.8 hPa SSW 6 mph /  9.7 km/h 9 mph /  14.5 km/h 35 % 0 in /  0 mm
23:34 54.3 °F /  12.4 °C 27.3 °F /  -2.6 °C 29.94 in /  1013.8 hPa ESE 4 mph /  6.4 km/h 9 mph /  14.5 km/h 35 % 0 in /  0 mm
23:39 54 °F /  12.2 °C 27.7 °F /  -2.4 °C 29.95 in /  1014.1 hPa WSW 6.9 mph /  11.1 km/h 10 mph /  16.1 km/h 36 % 0 in /  0 mm
23:44 54 °F /  12.2 °C 27.7 °F /  -2.4 °C 29.95 in /  1014.1 hPa SSW 8.1 mph /  13 km/h 10 mph /  16.1 km/h 36 % 0 in /  0 mm
23:49 54 °F /  12.2 °C 27.7 °F /  -2.4 °C 29.95 in /  1014.1 hPa South 10.1 mph /  16.3 km/h 12 mph /  19.3 km/h 36 % 0 in /  0 mm
23:54 54.9 °F /  12.7 °C 26.2 °F /  -3.2 °C 29.95 in /  1014.1 hPa SSW 4.9 mph /  7.9 km/h 8 mph /  12.9 km/h 33 % 0 in /  0 mm
23:59 54.5 °F /  12.5 °C 26.8 °F /  -2.9 °C 29.95 in /  1014.1 hPa SSW 4 mph /  6.4 km/h 9 mph /  14.5 km/h 34 % 0 in /  0 mm
Evergreen Colorado, USA
Compliments of Weather Underground - 3.5 mb